Thunder radar more information blitzortung!


Radar de pluja more information rain snow radar


Visita la nostra xarxa de llocs de meteo:

Template documentation
and downloads

And another site



No particular awareness of the weather is required.    There are no Weather-warnings

Pagina Historial Weather Underground text

Diari Resum Agost 22, 2017 Unitats:  Imperial    Mètric   Tant
« Previous Dia
SegĂźent Dia »
Diari Setmana Mensual Anual Personalitzada
  Maxima: Minima: Media:
Temperatura: 91.4 °F 66 °F 79.7 °F
Punt de rosada: 68.4 °F 60.8 °F 63.9 °F
Humitat: 87 % 42 % 61 %
Wind Speed: 13.8 mph 0 mph 4.5 mph
RĂ fegues de vent: 13.8 mph - -
Vent:- - SW
Pression baro: 30 in 29.9 in -
Precipitacions: 0 in    
Historical Graphs
 
 
Dades de taula per Agost 22, 2017
Temps Temperatura Punt de rosada Pression baro Vent Wind Speed RĂ fegues de vent Humitat Rainfall Rate (Hourly)
00:03 73.8 °F 63 °F 30 in SW 1.2 mph   69 % 0 in
00:05 70.2 °F 64.8 °F 30 in Calm   1 mph 83 % 0 in
00:15 70.2 °F 64.8 °F 30 in Calm     83 % 0 in
00:25 70 °F 64.6 °F 30 in WNW 1 mph 1 mph 83 % 0 in
00:35 69.6 °F 64.2 °F 30 in WNW 1 mph 1 mph 83 % 0 in
00:45 69.3 °F 63.9 °F 30 in WSW 1 mph 1 mph 83 % 0 in
00:55 69.1 °F 63.7 °F 30 in Calm   1 mph 83 % 0 in
01:05 68.9 °F 63.5 °F 30 in Calm   1 mph 83 % 0 in
01:15 68.7 °F 63.7 °F 30 in Calm     84 % 0 in
01:25 68.5 °F 63.5 °F 30 in Calm     84 % 0 in
01:35 68 °F 62.6 °F 30 in SW 2 mph 2 mph 83 % 0 in
01:45 67.5 °F 62.1 °F 30 in SW 2 mph 3 mph 83 % 0 in
01:55 67.5 °F 62.4 °F 30 in WSW 2 mph 2 mph 84 % 0 in
02:05 67.5 °F 62.8 °F 30 in Calm   2 mph 85 % 0 in
02:15 67.6 °F 63 °F 30 in WSW 1 mph 2 mph 85 % 0 in
02:25 67.5 °F 62.8 °F 30 in Calm   1 mph 85 % 0 in
02:35 67.5 °F 62.8 °F 30 in Calm     85 % 0 in
02:45 66.7 °F 61.7 °F 30 in North 2 mph 2 mph 84 % 0 in
03:05 66.6 °F 61.9 °F 30 in Calm   1 mph 85 % 0 in
03:15 66.2 °F 61.5 °F 30 in Calm   2 mph 85 % 0 in
03:25 66 °F 61.7 °F 30 in SW 2 mph 3 mph 86 % 0 in
03:35 66 °F 61.7 °F 30 in SW 2 mph 2 mph 86 % 0 in
03:45 66.2 °F 61.9 °F 30 in WSW 1 mph 2 mph 86 % 0 in
03:55 66.4 °F 62.1 °F 30 in WSW 1 mph 2 mph 86 % 0 in
04:05 66.4 °F 62.1 °F 30 in SW 2 mph 2 mph 86 % 0 in
04:15 67.3 °F 63.3 °F 30 in Calm   2 mph 87 % 0 in
04:25 69.3 °F 64.9 °F 30 in Calm   2 mph 86 % 0 in
04:35 70 °F 64.6 °F 30 in East 1 mph 2 mph 83 % 0 in
04:45 71.6 °F 65.5 °F 30 in ENE 1 mph 2 mph 81 % 0 in
04:55 72.9 °F 66 °F 30 in ENE 1 mph 2 mph 79 % 0 in
05:05 72.9 °F 66 °F 30 in SSW 1 mph 2 mph 79 % 0 in
05:15 73.4 °F 65.5 °F 30 in SSW 1 mph 2 mph 76 % 0 in
05:25 73 °F 65.5 °F 30 in SW 2 mph 3 mph 77 % 0 in
05:35 73.8 °F 65.3 °F 30 in WSW 2 mph 3 mph 75 % 0 in
05:45 75.7 °F 66.6 °F 30 in South 1 mph 3 mph 73 % 0 in
05:55 77.5 °F 66.9 °F 30 in SE 1 mph 3 mph 70 % 0 in
11:03 81 °F 65.8 °F 30 in SW 5.8 mph 5.8 mph 60 % 0 in
11:04 81 °F 65.8 °F 30 in SW 5.8 mph 5.8 mph 60 % 0 in
11:05 81 °F 65.8 °F 30 in WSW 5.8 mph 5.8 mph 60 % 0 in
11:10 81.5 °F 66.4 °F 30 in SW 5.8 mph 5.8 mph 60 % 0 in
11:15 82.6 °F 66.7 °F 30 in West 5.9 mph 5.9 mph 59 % 0 in
11:20 82.6 °F 66.7 °F 30 in SW 5.8 mph 5.8 mph 59 % 0 in
11:25 83.1 °F 67.3 °F 30 in East 3.5 mph 3.5 mph 59 % 0 in
11:30 83.7 °F 67.3 °F 30 in SSW 5.8 mph 5.8 mph 58 % 0 in
11:35 85.3 °F 68.4 °F 30 in West 3.8 mph 3.8 mph 57 % 0 in
11:40 84.6 °F 67.6 °F 30 in WSW 4.6 mph 4.6 mph 57 % 0 in
11:45 84.6 °F 67.1 °F 30 in SW 3.5 mph 3.5 mph 56 % 0 in
11:50 85.6 °F 67.6 °F 30 in West 5.8 mph 5.8 mph 55 % 0 in
11:55 85.5 °F 66.9 °F 30 in WSW 5.8 mph 5.8 mph 54 % 0 in
12:00 85.3 °F 66.2 °F 30 in SW 4.9 mph 4.9 mph 53 % 0 in
12:05 85.3 °F 66.2 °F 30 in SW 6.9 mph 6.9 mph 53 % 0 in
12:10 86.4 °F 66.7 °F 30 in WSW 5.8 mph 5.8 mph 52 % 0 in
12:15 86.9 °F 66.6 °F 30 in SSW 8.1 mph 8.1 mph 51 % 0 in
12:20 86.5 °F 65.7 °F 30 in SW 6.4 mph 6.4 mph 50 % 0 in
12:25 86.9 °F 65.5 °F 30 in SSW 3.6 mph 3.6 mph 49 % 0 in
12:30 87.3 °F 65.8 °F 30 in South 8.1 mph 8.1 mph 49 % 0 in
12:35 86.9 °F 64.8 °F 30 in SW 10.4 mph 10.4 mph 48 % 0 in
12:40 87.4 °F 65.3 °F 30 in SW 4.6 mph 4.6 mph 48 % 0 in
12:45 88 °F 65.8 °F 30 in WSW 5.8 mph 5.8 mph 48 % 0 in
12:50 88.7 °F 65.8 °F 30 in South 8.1 mph 8.1 mph 47 % 0 in
12:55 88.9 °F 66 °F 30 in SW 5.8 mph 5.8 mph 47 % 0 in
13:00 89.1 °F 66.2 °F 30 in SSW 5.8 mph 5.8 mph 47 % 0 in
13:05 89.6 °F 66.7 °F 30 in WSW 4.6 mph 4.6 mph 47 % 0 in
13:10 90.9 °F 67.8 °F 30 in SW 5.8 mph 5.8 mph 47 % 0 in
13:15 91.4 °F 67.6 °F 30 in SSW 4.7 mph 4.7 mph 46 % 0 in
13:20 89.8 °F 66.2 °F 30 in South 6.9 mph 6.9 mph 46 % 0 in
13:25 90 °F 66.4 °F 30 in SW 3.8 mph 3.8 mph 46 % 0 in
13:30 90 °F 66.4 °F 30 in SW 9.2 mph 9.2 mph 46 % 0 in
13:35 90.9 °F 67.3 °F 30 in SW 8.5 mph 8.5 mph 46 % 0 in
13:40 90.1 °F 66.6 °F 30 in South 5.8 mph 5.8 mph 46 % 0 in
13:45 90.3 °F 66 °F 30 in SW 5.8 mph 5.8 mph 45 % 0 in
13:50 90 °F 65.8 °F 30 in WSW 6.9 mph 6.9 mph 45 % 0 in
13:55 90 °F 65.8 °F 30 in SSW 5.8 mph 5.8 mph 45 % 0 in
14:00 90 °F 65.8 °F 30 in West 7.4 mph 7.4 mph 45 % 0 in
14:05 90.3 °F 66 °F 30 in SSW 6.9 mph 6.9 mph 45 % 0 in
14:10 90.1 °F 65.8 °F 30 in South 8.1 mph 8.1 mph 45 % 0 in
14:15 89.8 °F 64.9 °F 30 in SSW 6.9 mph 6.9 mph 44 % 0 in
14:20 90.5 °F 66.4 °F 30 in SSW 5.8 mph 5.8 mph 45 % 0 in
14:25 90.7 °F 66.4 °F 30 in SW 5.8 mph 5.8 mph 45 % 0 in
14:30 91 °F 66.7 °F 30 in SW 7.4 mph 7.4 mph 45 % 0 in
14:35 90.9 °F 65.8 °F 30 in SSW 5.8 mph 5.8 mph 44 % 0 in
14:40 90.9 °F 65.8 °F 30 in WSW 10.9 mph 10.9 mph 44 % 0 in
14:45 90.7 °F 65.8 °F 30 in SW 8.1 mph 8.1 mph 44 % 0 in
14:50 91.2 °F 65.7 °F 30 in SSW 5.8 mph 5.8 mph 43 % 0 in
14:51 91.2 °F 65.7 °F 30 in SW 9.2 mph 9.2 mph 43 % 0 in
14:56 90.5 °F 64.2 °F 30 in West 10.4 mph 10.4 mph 42 % 0 in
15:01 90.7 °F 65.1 °F 30 in SW 10.4 mph 10.4 mph 43 % 0 in
15:06 90.7 °F 65.1 °F 30 in West 10.4 mph 10.4 mph 43 % 0 in
15:11 90.7 °F 64.4 °F 30 in SW 9.2 mph 9.2 mph 42 % 0 in
15:16 90.3 °F 64 °F 30 in NW 8.1 mph 8.1 mph 42 % 0 in
15:21 90.3 °F 64 °F 30 in WSW 10.4 mph 10.4 mph 42 % 0 in
15:26 89.6 °F 63.5 °F 30 in SW 9.2 mph 9.2 mph 42 % 0 in
15:31 89.4 °F 64 °F 30 in SW 7.1 mph 7.1 mph 43 % 0 in
15:36 89.2 °F 63.9 °F 30 in WSW 13.8 mph 13.8 mph 43 % 0 in
15:41 89.4 °F 64 °F 30 in West 8.5 mph 8.5 mph 43 % 0 in
15:46 89.1 °F 63.7 °F 30 in SW 8.1 mph 8.1 mph 43 % 0 in
15:51 89.6 °F 64 °F 30 in SSW 11.5 mph 11.5 mph 43 % 0 in
15:56 89.8 °F 64.2 °F 29.9 in SW 6.9 mph 6.9 mph 43 % 0 in
16:01 90.1 °F 64.6 °F 29.9 in SW 6 mph 6 mph 43 % 0 in
16:06 89.6 °F 63.5 °F 29.9 in SSW 12.7 mph 12.7 mph 42 % 0 in
16:11 90.1 °F 64.6 °F 30 in WSW 10.4 mph 10.4 mph 43 % 0 in
16:16 89.8 °F 63.7 °F 30 in SW 8.1 mph 8.1 mph 42 % 0 in
16:21 89.4 °F 64 °F 30 in SSW 8.7 mph 8.7 mph 43 % 0 in
16:26 89.2 °F 63.9 °F 30 in SW 6.7 mph 6.7 mph 43 % 0 in
16:27 89.4 °F 64 °F 30 in South 6.9 mph 6.9 mph 43 % 0 in
16:32 88.2 °F 62.8 °F 30 in SSW 10.4 mph 10.4 mph 43 % 0 in
16:37 87.8 °F 62.4 °F 30 in SW 10.4 mph 10.4 mph 43 % 0 in
16:42 88.3 °F 63 °F 29.9 in SW 5.9 mph 5.9 mph 43 % 0 in
16:47 88.3 °F 63 °F 29.9 in South 10.4 mph 10.4 mph 43 % 0 in
16:52 87.8 °F 62.4 °F 29.9 in SSW 5.8 mph 5.8 mph 43 % 0 in
16:57 88.2 °F 62.8 °F 29.9 in West 6.9 mph 6.9 mph 43 % 0 in
17:02 88.5 °F 63.1 °F 29.9 in WSW 7.6 mph 7.6 mph 43 % 0 in
17:07 88.2 °F 62.8 °F 29.9 in South 10.4 mph 10.4 mph 43 % 0 in
17:12 88.3 °F 63 °F 29.9 in SW 4.6 mph 4.6 mph 43 % 0 in
17:17 88 °F 62.8 °F 29.9 in South 10.4 mph 10.4 mph 43 % 0 in
17:22 87.8 °F 62.4 °F 29.9 in South 10 mph 10 mph 43 % 0 in
17:27 87.4 °F 62.8 °F 29.9 in WSW 8.1 mph 8.1 mph 44 % 0 in
17:32 88 °F 62.8 °F 29.9 in SSW 4.6 mph 4.6 mph 43 % 0 in
17:37 88.2 °F 63.5 °F 29.9 in ENE 6.9 mph 6.9 mph 44 % 0 in
17:42 87.3 °F 62.8 °F 29.9 in WSW 12.7 mph 12.7 mph 44 % 0 in
17:47 86.7 °F 62.2 °F 29.9 in SW 9.2 mph 9.2 mph 44 % 0 in
17:52 86.9 °F 63 °F 29.9 in SW 6.9 mph 6.9 mph 45 % 0 in
17:57 86.4 °F 61.9 °F 29.9 in SW 9.2 mph 9.2 mph 44 % 0 in
18:02 85.6 °F 61.9 °F 29.9 in SW 7.1 mph 7.1 mph 45 % 0 in
18:07 85.3 °F 62.2 °F 29.9 in WSW 6.9 mph 6.9 mph 46 % 0 in
18:12 86.4 °F 62.4 °F 29.9 in SSE 4.6 mph 4.6 mph 45 % 0 in
18:17 85.8 °F 62.6 °F 29.9 in WSW 6.9 mph 6.9 mph 46 % 0 in
18:22 85.1 °F 62.1 °F 29.9 in SW 9.2 mph 9.2 mph 46 % 0 in
18:27 84.6 °F 61.5 °F 29.9 in South 12.7 mph 12.7 mph 46 % 0 in
18:32 84.9 °F 62.4 °F 29.9 in SW 5.8 mph 5.8 mph 47 % 0 in
18:37 84.9 °F 62.4 °F 29.9 in South 7.6 mph 7.6 mph 47 % 0 in
18:42 84.6 °F 62.1 °F 29.9 in SSW 5.8 mph 5.8 mph 47 % 0 in
18:47 83.8 °F 62.1 °F 29.9 in SW 8.1 mph 8.1 mph 48 % 0 in
18:52 83.7 °F 61.9 °F 29.9 in West 9.2 mph 9.2 mph 48 % 0 in
18:57 83.3 °F 61.5 °F 29.9 in SSW 6.2 mph 6.2 mph 48 % 0 in
19:02 83.3 °F 61.5 °F 29.9 in SSW 8.1 mph 8.1 mph 48 % 0 in
19:07 82.6 °F 61 °F 29.9 in SW 4.6 mph 4.6 mph 48 % 0 in
19:12 82.6 °F 61.5 °F 29.9 in South 6.9 mph 6.9 mph 49 % 0 in
19:17 82.4 °F 61.3 °F 29.9 in SSW 6.9 mph 6.9 mph 49 % 0 in
19:22 82.6 °F 61.5 °F 29.9 in South 4.6 mph 4.6 mph 49 % 0 in
19:27 82 °F 61 °F 29.9 in SW 5.8 mph 5.8 mph 49 % 0 in
19:32 81.7 °F 61.2 °F 29.9 in WSW 6.9 mph 6.9 mph 50 % 0 in
19:37 81.5 °F 61.2 °F 29.9 in SSW 4.6 mph 4.6 mph 50 % 0 in
19:42 81 °F 61.2 °F 29.9 in WSW 5.8 mph 5.8 mph 51 % 0 in
19:47 80.6 °F 60.8 °F 29.9 in SSE 6.9 mph 6.9 mph 51 % 0 in
19:52 80.4 °F 61.7 °F 29.9 in SW 6 mph 6 mph 53 % 0 in
19:57 79.9 °F 61.7 °F 29.9 in SSW 4.6 mph 4.6 mph 54 % 0 in
20:02 79.7 °F 61.5 °F 29.9 in WSW 6.2 mph 6.2 mph 54 % 0 in
20:07 79.5 °F 62.4 °F 29.9 in SW 8.1 mph 8.1 mph 56 % 0 in
20:12 79.2 °F 62.1 °F 29.9 in SW 9.2 mph 9.2 mph 56 % 0 in
20:15 72.5 °F 64 °F 30 in Calm   3 mph 75 % 0 in
20:17 79 °F 61.9 °F 29.9 in SW 2.3 mph 2.3 mph 56 % 0 in
20:22 78.8 °F 62.2 °F 29.9 in SSW 4.6 mph 4.6 mph 57 % 0 in
20:25 72 °F 63.7 °F 30 in WSW 1 mph 2 mph 75 % 0 in
20:27 78.6 °F 62.6 °F 29.9 in South 5.8 mph 5.8 mph 58 % 0 in
20:32 78.4 °F 61.9 °F 29.9 in SSE 5.8 mph 5.8 mph 57 % 0 in
20:35 71.4 °F 63.5 °F 30 in SW 1 mph 2 mph 76 % 0 in
20:37 78.1 °F 62.6 °F 29.9 in SW 2.3 mph 2.3 mph 59 % 0 in
20:42 77.9 °F 62.4 °F 29.9 in WSW 3.5 mph 3.5 mph 59 % 0 in
20:45 71.4 °F 63.9 °F 30 in Calm   2 mph 77 % 0 in
20:47 77.5 °F 62.1 °F 29.9 in SW 3.8 mph 3.8 mph 59 % 0 in
20:52 77.4 °F 62.4 °F 29.9 in WSW 2.4 mph 2.4 mph 60 % 0 in
20:55 71.2 °F 63.7 °F 30 in SW 1 mph 2 mph 77 % 0 in
20:57 77.2 °F 62.2 °F 29.9 in SW 3.5 mph 3.5 mph 60 % 0 in
21:02 76.8 °F 62.2 °F 29.9 in SW 3.5 mph 3.5 mph 61 % 0 in
21:05 71.2 °F 63.7 °F 30 in WSW 1 mph 2 mph 77 % 0 in
21:07 76.6 °F 62.6 °F 29.9 in SW 5.8 mph 5.8 mph 62 % 0 in
21:12 76.5 °F 62.4 °F 29.9 in SW 3.5 mph 3.5 mph 62 % 0 in
21:15 71.1 °F 63.9 °F 30 in WSW 2 mph 2 mph 78 % 0 in
21:17 76.3 °F 62.8 °F 29.9 in SW 3.5 mph 3.5 mph 63 % 0 in
21:22 75.9 °F 63 °F 29.9 in SW 2.6 mph 2.6 mph 64 % 0 in
21:25 70.9 °F 64 °F 30 in Calm   1 mph 79 % 0 in
21:27 75.9 °F 63 °F 30 in SW 2.3 mph 2.3 mph 64 % 0 in
21:32 75.7 °F 62.8 °F 30 in SW 2.3 mph 2.3 mph 64 % 0 in
21:35 70.7 °F 64.2 °F 30 in Calm   1 mph 80 % 0 in
21:37 75.4 °F 62.4 °F 30 in SW 3.5 mph 3.5 mph 64 % 0 in
21:42 75.2 °F 62.6 °F 30 in SW 2.6 mph 2.6 mph 65 % 0 in
21:45 70.2 °F 63 °F 30 in WNW 1 mph 3 mph 78 % 0 in
21:47 75 °F 63.3 °F 30 in SW 1.2 mph 1.2 mph 67 % 0 in
21:52 75 °F 63.3 °F 30 in SW 2.3 mph 2.3 mph 67 % 0 in
21:55 69.8 °F 62.6 °F 30 in NNE 1 mph 2 mph 78 % 0 in
21:57 74.8 °F 63.7 °F 30 in SW 2.3 mph 2.3 mph 68 % 0 in
22:02 74.7 °F 63.3 °F 30 in WSW 2.3 mph 2.3 mph 68 % 0 in
22:05 69.4 °F 63 °F 30 in Calm   2 mph 80 % 0 in
22:07 74.7 °F 63.9 °F 30 in SW 1.2 mph 1.4 mph 69 % 0 in
22:12 74.5 °F 63.7 °F 30 in WSW 2.3 mph 2.3 mph 69 % 0 in
22:15 69.3 °F 62.8 °F 30 in WSW 1 mph 2 mph 80 % 0 in
22:17 74.5 °F 63.7 °F 30 in WSW 2.3 mph 2.3 mph 69 % 0 in
22:22 74.3 °F 63.5 °F 30 in SW 2.3 mph 2.3 mph 69 % 0 in
22:25 68.7 °F 62.8 °F 30 in Calm   2 mph 81 % 0 in
22:27 74.1 °F 63.7 °F 30 in SW 1.2 mph   70 % 0 in
22:32 73.9 °F 63.5 °F 30 in WSW 1.4 mph   70 % 0 in
22:35 68.7 °F 62.8 °F 30 in Calm   1 mph 81 % 0 in
22:37 73.8 °F 63.3 °F 30 in SW 1.2 mph   70 % 0 in
22:42 73.6 °F 63.1 °F 30 in SW 2.3 mph 2.3 mph 70 % 0 in
22:45 68.7 °F 62.8 °F 30 in NNW 1 mph 2 mph 81 % 0 in
22:47 73.6 °F 63.1 °F 30 in SW 2.3 mph 2.3 mph 70 % 0 in
22:52 73.4 °F 63.3 °F 30 in Calm     71 % 0 in
22:55 68.9 °F 63.1 °F 30 in Calm   2 mph 82 % 0 in
22:57 73.4 °F 63.3 °F 30 in WSW 1.6 mph 1.6 mph 71 % 0 in
23:02 73.4 °F 63.3 °F 30 in WSW 1.6 mph 1.6 mph 71 % 0 in
23:05 68.9 °F 63.1 °F 29.9 in NE 1 mph 2 mph 82 % 0 in
23:07 73.4 °F 63.9 °F 30 in WSW 1.2 mph   72 % 0 in
23:12 73.4 °F 63.9 °F 30 in WSW 1.6 mph 1.6 mph 72 % 0 in
23:15 68.7 °F 63 °F 29.9 in ENE 2 mph 3 mph 82 % 0 in
23:17 73.4 °F 63.9 °F 30 in West 1.2 mph 1.2 mph 72 % 0 in
23:22 73.2 °F 63.7 °F 30 in WSW 1.2 mph   72 % 0 in
23:25 67.8 °F 61.3 °F 29.9 in NE 3 mph 4 mph 80 % 0 in
23:27 73 °F 63.9 °F 30 in Calm     73 % 0 in
23:32 73 °F 63.9 °F 30 in Calm     73 % 0 in
23:35 67.6 °F 61.9 °F 30 in WSW 2 mph 3 mph 82 % 0 in
23:37 72.9 °F 63.7 °F 30 in Calm     73 % 0 in
23:42 72.9 °F 64 °F 30 in Calm     74 % 0 in
23:45 67.8 °F 62.4 °F 30 in Calm   2 mph 83 % 0 in
23:47 72.9 °F 64 °F 30 in Calm     74 % 0 in
23:52 72.7 °F 63.9 °F 30 in Calm     74 % 0 in
23:55 68.5 °F 62.8 °F 30 in West 2 mph 3 mph 82 % 0 in
23:57 72.7 °F 63.9 °F 30 in Calm     74 % 0 in
Meteo Sesrovires
Elogis d' Weather Underground - 3.75 mb

Guio original per  Jim McMurry - jmcmurry@mwt.net Adaptat per a la plantilla per  Wim van der Kuil - Leuven-Template.eu

Trobareu la nostra informacio del temps tambe a:

Weather Underground

AWEKAS